sensor_id;sensor_type;location;lat;lon;timestamp;pressure;altitude;pressure_sealevel;temperature;humidity
78064;BME280;67429;51.596;-3.264;2024-01-30T00:02:00;99711.78;;;9.51;100.00
78064;BME280;67429;51.596;-3.264;2024-01-30T00:04:26;99711.52;;;9.34;100.00
78064;BME280;67429;51.596;-3.264;2024-01-30T00:06:51;99719.22;;;8.36;100.00
78064;BME280;67429;51.596;-3.264;2024-01-30T00:09:17;99715.47;;;9.33;100.00
78064;BME280;67429;51.596;-3.264;2024-01-30T00:11:43;99718.15;;;9.52;100.00
78064;BME280;67429;51.596;-3.264;2024-01-30T00:14:08;99730.66;;;9.34;100.00
78064;BME280;67429;51.596;-3.264;2024-01-30T00:16:34;99734.27;;;9.45;100.00
78064;BME280;67429;51.596;-3.264;2024-01-30T00:18:59;99728.97;;;9.60;100.00
78064;BME280;67429;51.596;-3.264;2024-01-30T00:21:25;99729.41;;;8.99;100.00
78064;BME280;67429;51.596;-3.264;2024-01-30T00:23:51;99728.71;;;9.29;100.00
78064;BME280;67429;51.596;-3.264;2024-01-30T00:26:16;99729.67;;;8.68;100.00
78064;BME280;67429;51.596;-3.264;2024-01-30T00:28:42;99728.14;;;8.20;100.00
78064;BME280;67429;51.596;-3.264;2024-01-30T00:31:08;99730.02;;;8.20;100.00
78064;BME280;67429;51.596;-3.264;2024-01-30T00:33:33;99728.55;;;8.42;100.00
78064;BME280;67429;51.596;-3.264;2024-01-30T00:35:59;99729.36;;;8.26;100.00
78064;BME280;67429;51.596;-3.264;2024-01-30T00:38:25;99730.99;;;8.79;100.00
78064;BME280;67429;51.596;-3.264;2024-01-30T00:40:50;99742.12;;;9.17;100.00
78064;BME280;67429;51.596;-3.264;2024-01-30T00:43:16;99751.18;;;8.64;100.00
78064;BME280;67429;51.596;-3.264;2024-01-30T00:45:43;99759.94;;;8.50;100.00
78064;BME280;67429;51.596;-3.264;2024-01-30T00:48:07;99762.80;;;7.03;100.00
78064;BME280;67429;51.596;-3.264;2024-01-30T00:50:32;99765.95;;;6.34;100.00
78064;BME280;67429;51.596;-3.264;2024-01-30T00:52:58;99769.61;;;6.22;100.00
78064;BME280;67429;51.596;-3.264;2024-01-30T00:55:24;99775.35;;;6.37;100.00
78064;BME280;67429;51.596;-3.264;2024-01-30T00:57:49;99776.93;;;5.91;100.00
78064;BME280;67429;51.596;-3.264;2024-01-30T01:00:16;99781.98;;;5.71;100.00
78064;BME280;67429;51.596;-3.264;2024-01-30T01:02:41;99791.77;;;5.51;100.00
78064;BME280;67429;51.596;-3.264;2024-01-30T01:05:07;99785.70;;;5.73;100.00
78064;BME280;67429;51.596;-3.264;2024-01-30T01:07:32;99788.00;;;6.27;100.00
78064;BME280;67429;51.596;-3.264;2024-01-30T01:09:58;99796.44;;;5.55;100.00
78064;BME280;67429;51.596;-3.264;2024-01-30T01:12:23;99800.21;;;5.97;100.00
78064;BME280;67429;51.596;-3.264;2024-01-30T01:14:49;99807.51;;;5.56;100.00
78064;BME280;67429;51.596;-3.264;2024-01-30T01:17:15;99821.50;;;5.22;100.00
78064;BME280;67429;51.596;-3.264;2024-01-30T01:19:40;99830.41;;;5.39;100.00
78064;BME280;67429;51.596;-3.264;2024-01-30T01:22:06;99829.98;;;4.92;100.00
78064;BME280;67429;51.596;-3.264;2024-01-30T01:24:32;99837.11;;;4.61;100.00
78064;BME280;67429;51.596;-3.264;2024-01-30T01:26:58;99843.60;;;4.33;100.00
78064;BME280;67429;51.596;-3.264;2024-01-30T01:29:23;99846.17;;;4.45;100.00
78064;BME280;67429;51.596;-3.264;2024-01-30T01:31:49;99854.93;;;4.70;100.00
78064;BME280;67429;51.596;-3.264;2024-01-30T01:34:14;99851.03;;;4.82;100.00
78064;BME280;67429;51.596;-3.264;2024-01-30T01:36:40;99852.02;;;4.38;100.00
78064;BME280;67429;51.596;-3.264;2024-01-30T01:39:06;99843.41;;;4.84;100.00
78064;BME280;67429;51.596;-3.264;2024-01-30T01:41:32;99844.23;;;4.39;100.00
78064;BME280;67429;51.596;-3.264;2024-01-30T01:43:57;99855.42;;;3.64;100.00
78064;BME280;67429;51.596;-3.264;2024-01-30T01:46:23;99864.18;;;3.33;100.00
78064;BME280;67429;51.596;-3.264;2024-01-30T01:48:48;99880.17;;;3.67;100.00
78064;BME280;67429;51.596;-3.264;2024-01-30T01:51:15;99887.78;;;3.25;100.00
78064;BME280;67429;51.596;-3.264;2024-01-30T01:53:40;99901.67;;;3.25;100.00
78064;BME280;67429;51.596;-3.264;2024-01-30T01:56:06;99908.91;;;3.40;100.00
78064;BME280;67429;51.596;-3.264;2024-01-30T01:58:31;99911.56;;;3.46;100.00
78064;BME280;67429;51.596;-3.264;2024-01-30T02:00:58;99927.78;;;3.37;100.00
78064;BME280;67429;51.596;-3.264;2024-01-30T02:03:22;99930.44;;;3.61;100.00
78064;BME280;67429;51.596;-3.264;2024-01-30T02:05:50;99938.76;;;3.52;100.00
78064;BME280;67429;51.596;-3.264;2024-01-30T02:08:14;99948.30;;;2.73;100.00
78064;BME280;67429;51.596;-3.264;2024-01-30T02:10:40;99954.99;;;3.18;100.00
78064;BME280;67429;51.596;-3.264;2024-01-30T02:13:05;99961.62;;;3.54;100.00
78064;BME280;67429;51.596;-3.264;2024-01-30T02:15:31;99966.64;;;4.05;100.00
78064;BME280;67429;51.596;-3.264;2024-01-30T02:17:57;99977.87;;;3.87;100.00
78064;BME280;67429;51.596;-3.264;2024-01-30T02:20:24;99977.74;;;4.02;100.00
78064;BME280;67429;51.596;-3.264;2024-01-30T02:22:48;99980.14;;;3.63;100.00
78064;BME280;67429;51.596;-3.264;2024-01-30T02:25:14;99981.75;;;3.40;100.00
78064;BME280;67429;51.596;-3.264;2024-01-30T02:27:40;99983.83;;;3.51;100.00
78064;BME280;67429;51.596;-3.264;2024-01-30T02:30:07;99987.24;;;4.28;100.00
78064;BME280;67429;51.596;-3.264;2024-01-30T02:32:31;99992.84;;;4.08;100.00
78064;BME280;67429;51.596;-3.264;2024-01-30T02:34:56;99998.34;;;3.86;100.00
78064;BME280;67429;51.596;-3.264;2024-01-30T02:37:22;100001.17;;;3.81;100.00
78064;BME280;67429;51.596;-3.264;2024-01-30T02:39:48;99997.94;;;3.43;100.00
78064;BME280;67429;51.596;-3.264;2024-01-30T02:42:13;100002.07;;;3.70;100.00
78064;BME280;67429;51.596;-3.264;2024-01-30T02:44:39;100000.68;;;3.04;100.00
78064;BME280;67429;51.596;-3.264;2024-01-30T02:47:05;100002.36;;;3.51;100.00
78064;BME280;67429;51.596;-3.264;2024-01-30T02:49:30;100005.45;;;3.08;100.00
78064;BME280;67429;51.596;-3.264;2024-01-30T02:51:56;100007.10;;;2.94;100.00
78064;BME280;67429;51.596;-3.264;2024-01-30T02:54:22;100008.86;;;3.26;100.00
78064;BME280;67429;51.596;-3.264;2024-01-30T02:56:47;100019.11;;;3.15;100.00
78064;BME280;67429;51.596;-3.264;2024-01-30T02:59:13;100023.43;;;3.17;100.00
78064;BME280;67429;51.596;-3.264;2024-01-30T03:01:44;100031.45;;;3.04;100.00
78064;BME280;67429;51.596;-3.264;2024-01-30T03:04:05;100028.29;;;3.04;100.00
78064;BME280;67429;51.596;-3.264;2024-01-30T03:06:30;100037.09;;;3.57;100.00
78064;BME280;67429;51.596;-3.264;2024-01-30T03:08:56;100037.92;;;3.20;100.00
78064;BME280;67429;51.596;-3.264;2024-01-30T03:11:21;100045.57;;;3.05;100.00
78064;BME280;67429;51.596;-3.264;2024-01-30T03:13:47;100047.69;;;3.28;100.00
78064;BME280;67429;51.596;-3.264;2024-01-30T03:16:13;100052.58;;;3.97;100.00
78064;BME280;67429;51.596;-3.264;2024-01-30T03:18:39;100053.02;;;3.36;100.00
78064;BME280;67429;51.596;-3.264;2024-01-30T03:21:04;100052.32;;;3.19;100.00
78064;BME280;67429;51.596;-3.264;2024-01-30T03:23:30;100060.73;;;3.07;100.00
78064;BME280;67429;51.596;-3.264;2024-01-30T03:25:56;100054.55;;;3.25;100.00
78064;BME280;67429;51.596;-3.264;2024-01-30T03:28:21;100062.72;;;2.73;100.00
78064;BME280;67429;51.596;-3.264;2024-01-30T03:30:47;100064.77;;;2.79;100.00
78064;BME280;67429;51.596;-3.264;2024-01-30T03:33:13;100063.20;;;3.33;100.00
78064;BME280;67429;51.596;-3.264;2024-01-30T03:35:38;100063.88;;;3.19;100.00
78064;BME280;67429;51.596;-3.264;2024-01-30T03:38:04;100064.41;;;3.15;100.00
78064;BME280;67429;51.596;-3.264;2024-01-30T03:40:30;100071.95;;;3.15;100.00
78064;BME280;67429;51.596;-3.264;2024-01-30T03:42:55;100076.58;;;2.83;100.00
78064;BME280;67429;51.596;-3.264;2024-01-30T03:45:21;100077.17;;;3.12;100.00
78064;BME280;67429;51.596;-3.264;2024-01-30T03:47:47;100083.58;;;4.61;100.00
78064;BME280;67429;51.596;-3.264;2024-01-30T03:50:12;100083.45;;;3.63;100.00
78064;BME280;67429;51.596;-3.264;2024-01-30T03:52:38;100087.35;;;3.58;100.00
78064;BME280;67429;51.596;-3.264;2024-01-30T03:55:04;100089.15;;;3.22;100.00
78064;BME280;67429;51.596;-3.264;2024-01-30T03:57:29;100090.10;;;3.25;100.00
78064;BME280;67429;51.596;-3.264;2024-01-30T03:59:55;100091.47;;;4.10;100.00
78064;BME280;67429;51.596;-3.264;2024-01-30T04:02:21;100096.88;;;3.63;100.00
78064;BME280;67429;51.596;-3.264;2024-01-30T04:04:46;100100.17;;;3.69;100.00
78064;BME280;67429;51.596;-3.264;2024-01-30T04:07:12;100096.33;;;3.29;100.00
78064;BME280;67429;51.596;-3.264;2024-01-30T04:09:38;100104.08;;;3.18;100.00
78064;BME280;67429;51.596;-3.264;2024-01-30T04:12:04;100108.86;;;2.93;100.00
78064;BME280;67429;51.596;-3.264;2024-01-30T04:14:29;100114.06;;;2.66;100.00
78064;BME280;67429;51.596;-3.264;2024-01-30T04:16:55;100120.29;;;2.62;100.00
78064;BME280;67429;51.596;-3.264;2024-01-30T04:19:21;100122.64;;;2.92;100.00
78064;BME280;67429;51.596;-3.264;2024-01-30T04:21:47;100127.67;;;2.96;100.00
78064;BME280;67429;51.596;-3.264;2024-01-30T04:24:12;100125.17;;;3.12;100.00
78064;BME280;67429;51.596;-3.264;2024-01-30T04:26:38;100129.32;;;3.54;100.00
78064;BME280;67429;51.596;-3.264;2024-01-30T04:29:04;100135.35;;;3.52;100.00
78064;BME280;67429;51.596;-3.264;2024-01-30T04:31:29;100140.61;;;3.59;100.00
78064;BME280;67429;51.596;-3.264;2024-01-30T04:33:55;100155.32;;;3.29;100.00
78064;BME280;67429;51.596;-3.264;2024-01-30T04:36:21;100161.37;;;3.07;100.00
78064;BME280;67429;51.596;-3.264;2024-01-30T04:38:46;100166.11;;;3.79;100.00
78064;BME280;67429;51.596;-3.264;2024-01-30T04:41:12;100171.92;;;4.15;100.00
78064;BME280;67429;51.596;-3.264;2024-01-30T04:43:38;100178.46;;;4.79;100.00
78064;BME280;67429;51.596;-3.264;2024-01-30T04:46:04;100185.00;;;5.54;100.00
78064;BME280;67429;51.596;-3.264;2024-01-30T04:48:29;100183.59;;;4.55;100.00
78064;BME280;67429;51.596;-3.264;2024-01-30T04:50:55;100187.97;;;6.03;100.00
78064;BME280;67429;51.596;-3.264;2024-01-30T04:53:21;100191.18;;;4.55;100.00
78064;BME280;67429;51.596;-3.264;2024-01-30T04:55:46;100190.65;;;4.34;100.00
78064;BME280;67429;51.596;-3.264;2024-01-30T04:58:12;100196.87;;;4.56;100.00
78064;BME280;67429;51.596;-3.264;2024-01-30T05:00:38;100200.17;;;5.61;100.00
78064;BME280;67429;51.596;-3.264;2024-01-30T05:03:04;100204.67;;;4.28;100.00
78064;BME280;67429;51.596;-3.264;2024-01-30T05:05:29;100206.25;;;4.42;100.00
78064;BME280;67429;51.596;-3.264;2024-01-30T05:07:55;100210.30;;;4.97;100.00
78064;BME280;67429;51.596;-3.264;2024-01-30T05:10:20;100213.66;;;4.54;100.00
78064;BME280;67429;51.596;-3.264;2024-01-30T05:12:46;100223.49;;;4.97;100.00
78064;BME280;67429;51.596;-3.264;2024-01-30T05:15:12;100225.13;;;4.48;100.00
78064;BME280;67429;51.596;-3.264;2024-01-30T05:17:42;100231.93;;;4.70;100.00
78064;BME280;67429;51.596;-3.264;2024-01-30T05:20:04;100235.98;;;5.48;100.00
78064;BME280;67429;51.596;-3.264;2024-01-30T05:22:29;100244.55;;;5.29;100.00
78064;BME280;67429;51.596;-3.264;2024-01-30T05:24:55;100248.38;;;4.30;100.00
78064;BME280;67429;51.596;-3.264;2024-01-30T05:27:21;100252.19;;;4.86;100.00
78064;BME280;67429;51.596;-3.264;2024-01-30T05:29:46;100255.40;;;4.25;100.00
78064;BME280;67429;51.596;-3.264;2024-01-30T05:32:12;100263.89;;;4.62;100.00
78064;BME280;67429;51.596;-3.264;2024-01-30T05:34:37;100265.19;;;4.95;100.00
78064;BME280;67429;51.596;-3.264;2024-01-30T05:37:03;100271.26;;;5.17;100.00
78064;BME280;67429;51.596;-3.264;2024-01-30T05:39:29;100276.07;;;5.28;100.00
78064;BME280;67429;51.596;-3.264;2024-01-30T05:41:54;100278.41;;;5.31;100.00
78064;BME280;67429;51.596;-3.264;2024-01-30T05:44:20;100282.74;;;4.34;100.00
78064;BME280;67429;51.596;-3.264;2024-01-30T05:46:46;100288.85;;;5.73;100.00
78064;BME280;67429;51.596;-3.264;2024-01-30T05:49:11;100291.69;;;6.42;100.00
78064;BME280;67429;51.596;-3.264;2024-01-30T05:51:37;100299.20;;;7.98;100.00
78064;BME280;67429;51.596;-3.264;2024-01-30T05:54:03;100300.93;;;6.86;100.00
78064;BME280;67429;51.596;-3.264;2024-01-30T05:56:28;100303.09;;;6.92;100.00
78064;BME280;67429;51.596;-3.264;2024-01-30T05:58:54;100304.66;;;6.45;100.00
78064;BME280;67429;51.596;-3.264;2024-01-30T06:01:20;100309.72;;;5.77;100.00
78064;BME280;67429;51.596;-3.264;2024-01-30T06:03:46;100309.78;;;5.16;100.00
78064;BME280;67429;51.596;-3.264;2024-01-30T06:06:11;100312.12;;;4.50;100.00
78064;BME280;67429;51.596;-3.264;2024-01-30T06:08:37;100312.14;;;4.75;100.00
78064;BME280;67429;51.596;-3.264;2024-01-30T06:11:03;100314.03;;;4.89;100.00
78064;BME280;67429;51.596;-3.264;2024-01-30T06:13:28;100325.32;;;3.94;100.00
78064;BME280;67429;51.596;-3.264;2024-01-30T06:15:54;100320.98;;;4.89;100.00
78064;BME280;67429;51.596;-3.264;2024-01-30T06:18:20;100327.62;;;4.32;100.00
78064;BME280;67429;51.596;-3.264;2024-01-30T06:20:46;100332.69;;;4.59;100.00
78064;BME280;67429;51.596;-3.264;2024-01-30T06:23:11;100340.12;;;4.92;100.00
78064;BME280;67429;51.596;-3.264;2024-01-30T06:25:37;100348.45;;;5.00;100.00
78064;BME280;67429;51.596;-3.264;2024-01-30T06:28:03;100351.39;;;4.74;100.00
78064;BME280;67429;51.596;-3.264;2024-01-30T06:30:28;100350.42;;;4.83;100.00
78064;BME280;67429;51.596;-3.264;2024-01-30T06:32:54;100357.49;;;4.66;100.00
78064;BME280;67429;51.596;-3.264;2024-01-30T06:35:20;100370.07;;;4.42;100.00
78064;BME280;67429;51.596;-3.264;2024-01-30T06:37:45;100372.76;;;3.69;100.00
78064;BME280;67429;51.596;-3.264;2024-01-30T06:40:11;100378.32;;;3.62;100.00
78064;BME280;67429;51.596;-3.264;2024-01-30T06:42:36;100378.51;;;4.04;100.00
78064;BME280;67429;51.596;-3.264;2024-01-30T06:45:02;100377.13;;;3.76;100.00
78064;BME280;67429;51.596;-3.264;2024-01-30T06:47:28;100382.35;;;4.30;100.00
78064;BME280;67429;51.596;-3.264;2024-01-30T06:49:54;100389.41;;;4.04;100.00
78064;BME280;67429;51.596;-3.264;2024-01-30T06:52:20;100394.77;;;3.97;100.00
78064;BME280;67429;51.596;-3.264;2024-01-30T06:54:45;100394.22;;;4.30;100.00
78064;BME280;67429;51.596;-3.264;2024-01-30T06:57:11;100397.86;;;4.79;100.00
78064;BME280;67429;51.596;-3.264;2024-01-30T06:59:36;100402.54;;;4.48;100.00
78064;BME280;67429;51.596;-3.264;2024-01-30T07:02:01;100407.59;;;4.40;100.00
78064;BME280;67429;51.596;-3.264;2024-01-30T07:04:28;100408.29;;;4.83;100.00
78064;BME280;67429;51.596;-3.264;2024-01-30T07:06:53;100411.45;;;5.69;100.00
78064;BME280;67429;51.596;-3.264;2024-01-30T07:09:19;100417.56;;;4.63;100.00
78064;BME280;67429;51.596;-3.264;2024-01-30T07:11:44;100418.43;;;4.32;100.00
78064;BME280;67429;51.596;-3.264;2024-01-30T07:14:10;100420.38;;;4.58;100.00
78064;BME280;67429;51.596;-3.264;2024-01-30T07:16:36;100425.71;;;4.48;100.00
78064;BME280;67429;51.596;-3.264;2024-01-30T07:19:02;100423.31;;;5.21;100.00
78064;BME280;67429;51.596;-3.264;2024-01-30T07:21:27;100429.99;;;5.34;100.00
78064;BME280;67429;51.596;-3.264;2024-01-30T07:23:53;100439.89;;;4.54;100.00
78064;BME280;67429;51.596;-3.264;2024-01-30T07:26:19;100446.28;;;4.39;100.00
78064;BME280;67429;51.596;-3.264;2024-01-30T07:28:44;100448.51;;;4.49;100.00
78064;BME280;67429;51.596;-3.264;2024-01-30T07:31:10;100451.16;;;3.82;100.00
78064;BME280;67429;51.596;-3.264;2024-01-30T07:33:36;100450.98;;;3.79;100.00
78064;BME280;67429;51.596;-3.264;2024-01-30T07:36:02;100450.71;;;3.85;100.00
78064;BME280;67429;51.596;-3.264;2024-01-30T07:38:28;100451.77;;;4.71;100.00
78064;BME280;67429;51.596;-3.264;2024-01-30T07:40:53;100456.97;;;4.41;100.00
78064;BME280;67429;51.596;-3.264;2024-01-30T07:43:19;100465.18;;;4.43;100.00
78064;BME280;67429;51.596;-3.264;2024-01-30T07:45:45;100468.79;;;4.58;100.00
78064;BME280;67429;51.596;-3.264;2024-01-30T07:48:10;100470.03;;;4.29;100.00
78064;BME280;67429;51.596;-3.264;2024-01-30T07:50:36;100460.65;;;5.40;100.00
78064;BME280;67429;51.596;-3.264;2024-01-30T07:53:02;100469.98;;;4.03;100.00
78064;BME280;67429;51.596;-3.264;2024-01-30T07:55:27;100470.71;;;4.33;100.00
78064;BME280;67429;51.596;-3.264;2024-01-30T07:57:53;100472.83;;;4.39;100.00
78064;BME280;67429;51.596;-3.264;2024-01-30T08:00:20;100474.94;;;4.88;100.00
78064;BME280;67429;51.596;-3.264;2024-01-30T08:02:45;100485.64;;;4.03;100.00
78064;BME280;67429;51.596;-3.264;2024-01-30T08:05:10;100495.31;;;4.34;100.00
78064;BME280;67429;51.596;-3.264;2024-01-30T08:07:36;100488.03;;;3.44;100.00
78064;BME280;67429;51.596;-3.264;2024-01-30T08:10:02;100493.66;;;3.12;100.00
78064;BME280;67429;51.596;-3.264;2024-01-30T08:12:27;100496.22;;;3.60;100.00
78064;BME280;67429;51.596;-3.264;2024-01-30T08:14:53;100496.74;;;2.96;100.00
78064;BME280;67429;51.596;-3.264;2024-01-30T08:17:19;100506.36;;;3.08;100.00
78064;BME280;67429;51.596;-3.264;2024-01-30T08:19:44;100521.20;;;4.52;100.00
78064;BME280;67429;51.596;-3.264;2024-01-30T08:22:12;100523.52;;;4.39;100.00
78064;BME280;67429;51.596;-3.264;2024-01-30T08:24:36;100528.76;;;4.06;100.00
78064;BME280;67429;51.596;-3.264;2024-01-30T08:27:02;100536.75;;;4.32;100.00
78064;BME280;67429;51.596;-3.264;2024-01-30T08:29:27;100535.31;;;4.45;100.00
78064;BME280;67429;51.596;-3.264;2024-01-30T08:31:53;100546.46;;;4.84;100.00
78064;BME280;67429;51.596;-3.264;2024-01-30T08:34:19;100549.64;;;4.08;100.00
78064;BME280;67429;51.596;-3.264;2024-01-30T08:36:44;100555.13;;;3.72;100.00
78064;BME280;67429;51.596;-3.264;2024-01-30T08:39:11;100560.51;;;3.58;100.00
78064;BME280;67429;51.596;-3.264;2024-01-30T08:41:36;100569.13;;;4.25;100.00
78064;BME280;67429;51.596;-3.264;2024-01-30T08:44:02;100578.68;;;4.94;100.00
78064;BME280;67429;51.596;-3.264;2024-01-30T08:46:27;100583.58;;;5.11;100.00
78064;BME280;67429;51.596;-3.264;2024-01-30T08:48:53;100593.15;;;4.84;100.00
78064;BME280;67429;51.596;-3.264;2024-01-30T08:51:18;100601.28;;;4.16;100.00
78064;BME280;67429;51.596;-3.264;2024-01-30T08:53:44;100602.20;;;4.74;100.00
78064;BME280;67429;51.596;-3.264;2024-01-30T08:56:10;100602.06;;;4.89;100.00
78064;BME280;67429;51.596;-3.264;2024-01-30T08:58:35;100601.95;;;3.55;100.00
78064;BME280;67429;51.596;-3.264;2024-01-30T09:01:01;100602.49;;;3.39;100.00
78064;BME280;67429;51.596;-3.264;2024-01-30T09:03:27;100606.52;;;3.91;100.00
78064;BME280;67429;51.596;-3.264;2024-01-30T09:05:53;100609.26;;;3.94;100.00
78064;BME280;67429;51.596;-3.264;2024-01-30T09:08:18;100610.57;;;4.68;100.00
78064;BME280;67429;51.596;-3.264;2024-01-30T09:10:44;100621.01;;;4.86;100.00
78064;BME280;67429;51.596;-3.264;2024-01-30T09:13:10;100621.06;;;5.18;100.00
78064;BME280;67429;51.596;-3.264;2024-01-30T09:15:36;100621.02;;;3.43;100.00
78064;BME280;67429;51.596;-3.264;2024-01-30T09:18:01;100626.08;;;4.75;100.00
78064;BME280;67429;51.596;-3.264;2024-01-30T09:20:27;100630.53;;;4.21;100.00
78064;BME280;67429;51.596;-3.264;2024-01-30T09:22:53;100638.73;;;4.25;100.00
78064;BME280;67429;51.596;-3.264;2024-01-30T09:25:18;100641.31;;;4.57;100.00
78064;BME280;67429;51.596;-3.264;2024-01-30T09:27:44;100643.12;;;4.80;100.00
78064;BME280;67429;51.596;-3.264;2024-01-30T09:30:10;100645.50;;;4.55;100.00
78064;BME280;67429;51.596;-3.264;2024-01-30T09:32:35;100646.23;;;4.74;100.00
78064;BME280;67429;51.596;-3.264;2024-01-30T09:35:01;100646.55;;;3.76;100.00
78064;BME280;67429;51.596;-3.264;2024-01-30T09:37:27;100653.92;;;3.81;100.00
78064;BME280;67429;51.596;-3.264;2024-01-30T09:39:53;100661.85;;;4.33;100.00
78064;BME280;67429;51.596;-3.264;2024-01-30T09:42:26;100664.84;;;4.53;100.00
78064;BME280;67429;51.596;-3.264;2024-01-30T09:44:44;100672.47;;;4.64;100.00
78064;BME280;67429;51.596;-3.264;2024-01-30T09:47:10;100679.54;;;3.76;100.00
78064;BME280;67429;51.596;-3.264;2024-01-30T09:49:36;100690.92;;;4.60;100.00
78064;BME280;67429;51.596;-3.264;2024-01-30T09:52:02;100695.99;;;4.20;100.00
78064;BME280;67429;51.596;-3.264;2024-01-30T09:54:29;100707.65;;;3.46;100.00
78064;BME280;67429;51.596;-3.264;2024-01-30T09:56:53;100716.14;;;4.19;100.00
78064;BME280;67429;51.596;-3.264;2024-01-30T09:59:19;100721.49;;;5.42;100.00
78064;BME280;67429;51.596;-3.264;2024-01-30T10:01:45;100730.98;;;4.66;100.00
78064;BME280;67429;51.596;-3.264;2024-01-30T10:04:10;100734.16;;;5.08;100.00
78064;BME280;67429;51.596;-3.264;2024-01-30T10:06:37;100739.62;;;4.91;100.00
78064;BME280;67429;51.596;-3.264;2024-01-30T10:09:01;100740.63;;;4.23;100.00
78064;BME280;67429;51.596;-3.264;2024-01-30T10:11:27;100754.83;;;4.25;100.00
78064;BME280;67429;51.596;-3.264;2024-01-30T10:13:53;100763.37;;;4.54;100.00
78064;BME280;67429;51.596;-3.264;2024-01-30T10:16:18;100759.94;;;4.51;100.00
78064;BME280;67429;51.596;-3.264;2024-01-30T10:18:45;100765.49;;;5.56;100.00
78064;BME280;67429;51.596;-3.264;2024-01-30T10:21:10;100771.93;;;5.63;100.00
78064;BME280;67429;51.596;-3.264;2024-01-30T10:23:36;100779.50;;;5.55;100.00
78064;BME280;67429;51.596;-3.264;2024-01-30T10:26:03;100781.43;;;5.38;100.00
78064;BME280;67429;51.596;-3.264;2024-01-30T10:28:27;100786.26;;;5.54;100.00
78064;BME280;67429;51.596;-3.264;2024-01-30T10:30:57;100788.02;;;6.45;100.00
78064;BME280;67429;51.596;-3.264;2024-01-30T10:33:17;100796.30;;;5.77;100.00
78064;BME280;67429;51.596;-3.264;2024-01-30T10:35:43;100801.42;;;6.92;100.00
78064;BME280;67429;51.596;-3.264;2024-01-30T10:38:10;100802.11;;;4.96;100.00
78064;BME280;67429;51.596;-3.264;2024-01-30T10:40:35;100802.97;;;4.45;100.00
78064;BME280;67429;51.596;-3.264;2024-01-30T10:43:02;100812.14;;;4.47;100.00
78064;BME280;67429;51.596;-3.264;2024-01-30T10:45:26;100817.83;;;5.01;100.00
78064;BME280;67429;51.596;-3.264;2024-01-30T10:47:54;100825.40;;;5.17;100.00
78064;BME280;67429;51.596;-3.264;2024-01-30T10:50:17;100831.79;;;6.03;100.00
78064;BME280;67429;51.596;-3.264;2024-01-30T10:52:43;100836.44;;;6.49;100.00
78064;BME280;67429;51.596;-3.264;2024-01-30T10:55:08;100839.12;;;6.08;100.00
78064;BME280;67429;51.596;-3.264;2024-01-30T10:57:34;100844.00;;;6.13;100.00
78064;BME280;67429;51.596;-3.264;2024-01-30T11:00:02;100855.97;;;6.14;100.00
78064;BME280;67429;51.596;-3.264;2024-01-30T11:02:25;100860.98;;;5.36;100.00
78064;BME280;67429;51.596;-3.264;2024-01-30T11:04:55;100860.37;;;5.43;100.00
78064;BME280;67429;51.596;-3.264;2024-01-30T11:07:15;100858.42;;;6.39;100.00
78064;BME280;67429;51.596;-3.264;2024-01-30T11:09:50;100847.79;;;5.74;100.00
78064;BME280;67429;51.596;-3.264;2024-01-30T11:12:12;100845.12;;;6.21;100.00
78064;BME280;67429;51.596;-3.264;2024-01-30T11:14:32;100843.82;;;5.37;100.00
78064;BME280;67429;51.596;-3.264;2024-01-30T11:16:58;100848.72;;;5.84;100.00
78064;BME280;67429;51.596;-3.264;2024-01-30T11:19:24;100848.59;;;4.77;100.00
78064;BME280;67429;51.596;-3.264;2024-01-30T11:21:50;100847.57;;;5.39;100.00
78064;BME280;67429;51.596;-3.264;2024-01-30T11:24:15;100846.37;;;4.93;100.00
78064;BME280;67429;51.596;-3.264;2024-01-30T11:26:42;100854.68;;;4.17;100.00
78064;BME280;67429;51.596;-3.264;2024-01-30T11:29:08;100847.64;;;4.79;100.00
78064;BME280;67429;51.596;-3.264;2024-01-30T11:31:32;100848.63;;;4.98;100.00
78064;BME280;67429;51.596;-3.264;2024-01-30T11:33:59;100852.97;;;5.40;100.00
78064;BME280;67429;51.596;-3.264;2024-01-30T11:36:25;100855.50;;;5.33;100.00
78064;BME280;67429;51.596;-3.264;2024-01-30T11:38:50;100855.80;;;5.10;100.00
78064;BME280;67429;51.596;-3.264;2024-01-30T11:41:15;100858.34;;;6.29;100.00
78064;BME280;67429;51.596;-3.264;2024-01-30T11:43:41;100858.82;;;5.90;100.00
78064;BME280;67429;51.596;-3.264;2024-01-30T11:46:07;100855.82;;;5.79;100.00
78064;BME280;67429;51.596;-3.264;2024-01-30T11:48:32;100862.70;;;5.49;100.00
78064;BME280;67429;51.596;-3.264;2024-01-30T11:50:58;100868.02;;;5.39;100.00
78064;BME280;67429;51.596;-3.264;2024-01-30T11:53:23;100875.45;;;5.29;100.00
78064;BME280;67429;51.596;-3.264;2024-01-30T11:55:51;100881.67;;;5.08;100.00
78064;BME280;67429;51.596;-3.264;2024-01-30T11:58:15;100882.06;;;5.75;100.00
78064;BME280;67429;51.596;-3.264;2024-01-30T12:00:41;100882.29;;;5.54;100.00
78064;BME280;67429;51.596;-3.264;2024-01-30T12:03:06;100882.33;;;5.30;100.00
78064;BME280;67429;51.596;-3.264;2024-01-30T12:05:32;100881.63;;;5.94;100.00
78064;BME280;67429;51.596;-3.264;2024-01-30T12:07:58;100889.43;;;6.67;100.00
78064;BME280;67429;51.596;-3.264;2024-01-30T12:10:24;100889.54;;;7.02;100.00
78064;BME280;67429;51.596;-3.264;2024-01-30T12:12:50;100881.27;;;5.85;100.00
78064;BME280;67429;51.596;-3.264;2024-01-30T12:15:15;100877.42;;;5.82;100.00
78064;BME280;67429;51.596;-3.264;2024-01-30T12:17:41;100877.94;;;6.62;100.00
78064;BME280;67429;51.596;-3.264;2024-01-30T12:20:07;100867.94;;;6.26;100.00
78064;BME280;67429;51.596;-3.264;2024-01-30T12:22:36;100872.15;;;6.31;100.00
78064;BME280;67429;51.596;-3.264;2024-01-30T12:24:57;100875.99;;;5.84;100.00
78064;BME280;67429;51.596;-3.264;2024-01-30T12:27:23;100878.85;;;5.78;100.00
78064;BME280;67429;51.596;-3.264;2024-01-30T12:29:55;100881.81;;;6.02;100.00
78064;BME280;67429;51.596;-3.264;2024-01-30T12:32:15;100882.70;;;6.14;100.00
78064;BME280;67429;51.596;-3.264;2024-01-30T12:34:41;100877.52;;;6.71;100.00